createdAt,value
2023-03-24T00:00:18.777Z,100.00
2023-03-24T00:02:46.995Z,100.00
2023-03-24T00:05:17.107Z,100.00
2023-03-24T00:07:46.706Z,100.00
2023-03-24T00:10:19.391Z,100.00
2023-03-24T00:12:47.476Z,100.00
2023-03-24T00:15:19.270Z,100.00
2023-03-24T00:17:47.282Z,100.00
2023-03-24T00:20:16.522Z,100.00
2023-03-24T00:22:48.789Z,100.00
2023-03-24T00:25:24.235Z,100.00
2023-03-24T00:27:51.721Z,100.00
2023-03-24T00:30:19.688Z,100.00
2023-03-24T00:32:46.891Z,100.00
2023-03-24T00:35:16.697Z,100.00
2023-03-24T00:37:44.849Z,100.00
2023-03-24T00:40:17.467Z,100.00
2023-03-24T00:42:46.774Z,100.00
2023-03-24T00:45:20.597Z,100.00
2023-03-24T00:47:50.586Z,100.00
2023-03-24T00:50:19.231Z,100.00
2023-03-24T00:52:48.399Z,100.00
2023-03-24T00:55:16.233Z,100.00
2023-03-24T00:57:51.515Z,100.00
2023-03-24T01:00:36.693Z,100.00
2023-03-24T01:03:05.415Z,100.00
2023-03-24T01:05:32.354Z,100.00
2023-03-24T01:08:03.927Z,100.00
2023-03-24T01:10:34.031Z,100.00
2023-03-24T01:13:01.854Z,100.00
2023-03-24T01:15:33.812Z,100.00
2023-03-24T01:18:03.663Z,100.00
2023-03-24T01:20:35.862Z,100.00
2023-03-24T01:23:07.604Z,100.00
2023-03-24T01:25:39.320Z,100.00
2023-03-24T01:28:06.220Z,100.00
2023-03-24T01:30:33.083Z,100.00
2023-03-24T01:33:00.862Z,100.00
2023-03-24T01:35:29.517Z,100.00
2023-03-24T01:37:57.739Z,100.00
2023-03-24T01:40:27.763Z,100.00
2023-03-24T01:42:55.285Z,100.00
2023-03-24T01:46:30.650Z,100.00
2023-03-24T01:49:01.904Z,100.00
2023-03-24T01:51:36.001Z,100.00
2023-03-24T01:54:04.110Z,100.00
2023-03-24T01:56:34.602Z,100.00
2023-03-24T01:59:06.959Z,100.00
2023-03-24T02:01:34.056Z,100.00
2023-03-24T02:04:04.397Z,100.00
2023-03-24T02:06:33.684Z,100.00
2023-03-24T02:09:01.790Z,100.00
2023-03-24T02:11:33.073Z,100.00
2023-03-24T02:14:00.118Z,100.00
2023-03-24T02:16:43.452Z,100.00
2023-03-24T02:19:52.563Z,100.00
2023-03-24T02:22:57.099Z,100.00
2023-03-24T02:25:48.949Z,100.00
2023-03-24T02:28:55.326Z,100.00
2023-03-24T02:31:51.194Z,100.00
2023-03-24T02:34:32.445Z,100.00
2023-03-24T02:37:19.070Z,100.00
2023-03-24T02:40:30.066Z,100.00
2023-03-24T02:43:16.987Z,100.00
2023-03-24T02:46:38.016Z,100.00
2023-03-24T02:49:14.411Z,100.00
2023-03-24T02:52:01.847Z,100.00
2023-03-24T02:55:00.830Z,100.00
2023-03-24T02:57:34.762Z,100.00
2023-03-24T03:00:31.462Z,100.00
2023-03-24T03:03:10.443Z,100.00
2023-03-24T03:05:41.145Z,100.00
2023-03-24T03:08:10.815Z,100.00
2023-03-24T03:10:39.935Z,100.00
2023-03-24T03:13:11.568Z,100.00
2023-03-24T03:15:43.612Z,100.00
2023-03-24T03:18:11.989Z,100.00
2023-03-24T03:20:43.301Z,100.00
2023-03-24T03:23:14.330Z,100.00
2023-03-24T03:25:46.805Z,100.00
2023-03-24T03:28:18.292Z,100.00
2023-03-24T03:30:48.047Z,100.00
2023-03-24T03:33:34.319Z,100.00
2023-03-24T03:36:29.794Z,100.00
2023-03-24T03:39:29.624Z,100.00
2023-03-24T03:41:57.441Z,100.00
2023-03-24T03:44:24.574Z,100.00
2023-03-24T03:46:51.515Z,100.00
2023-03-24T03:49:18.344Z,100.00
2023-03-24T03:51:45.129Z,100.00
2023-03-24T03:54:13.618Z,100.00
2023-03-24T03:56:41.328Z,100.00
2023-03-24T03:59:08.688Z,100.00
2023-03-24T04:01:37.642Z,100.00
2023-03-24T04:04:38.559Z,100.00
2023-03-24T04:07:25.403Z,100.00
2023-03-24T04:09:59.823Z,100.00
2023-03-24T04:13:06.676Z,100.00
2023-03-24T04:15:46.030Z,100.00
2023-03-24T04:18:32.544Z,100.00
2023-03-24T04:21:04.787Z,100.00
2023-03-24T04:23:42.438Z,100.00
2023-03-24T04:26:18.933Z,100.00
2023-03-24T04:28:52.900Z,100.00
2023-03-24T04:31:29.050Z,100.00
2023-03-24T04:34:13.815Z,100.00
2023-03-24T04:36:54.607Z,100.00
2023-03-24T04:39:25.945Z,100.00
2023-03-24T04:41:53.320Z,100.00
2023-03-24T04:44:22.151Z,100.00
2023-03-24T04:46:55.991Z,100.00
2023-03-24T04:49:25.665Z,100.00
2023-03-24T04:51:53.094Z,100.00
2023-03-24T04:54:21.052Z,100.00
2023-03-24T04:56:53.114Z,100.00
2023-03-24T04:59:20.342Z,100.00
2023-03-24T05:01:50.229Z,100.00
2023-03-24T05:04:18.871Z,100.00
2023-03-24T05:06:47.216Z,100.00
2023-03-24T05:09:15.217Z,100.00
2023-03-24T05:11:41.983Z,100.00
2023-03-24T05:14:08.819Z,100.00
2023-03-24T05:16:35.568Z,100.00
2023-03-24T05:19:03.161Z,100.00
2023-03-24T05:21:31.865Z,100.00
2023-03-24T05:24:00.205Z,100.00
2023-03-24T05:26:26.973Z,100.00
2023-03-24T05:28:54.282Z,100.00
2023-03-24T05:31:21.048Z,100.00
2023-03-24T05:33:49.050Z,100.00
2023-03-24T05:36:16.633Z,100.00
2023-03-24T05:38:43.367Z,100.00
2023-03-24T05:41:10.161Z,100.00
2023-03-24T05:43:36.975Z,100.00
2023-03-24T05:46:03.707Z,100.00
2023-03-24T05:48:30.465Z,100.00
2023-03-24T05:50:57.757Z,100.00
2023-03-24T05:53:24.447Z,100.00
2023-03-24T05:55:53.930Z,100.00
2023-03-24T05:58:21.751Z,100.00
2023-03-24T06:00:48.982Z,100.00
2023-03-24T06:03:17.717Z,100.00
2023-03-24T06:05:46.576Z,100.00
2023-03-24T06:08:13.956Z,100.00
2023-03-24T06:10:41.537Z,100.00
2023-03-24T06:13:09.493Z,100.00
2023-03-24T06:15:36.756Z,100.00
2023-03-24T06:18:05.588Z,100.00
2023-03-24T06:20:33.081Z,100.00
2023-03-24T06:23:00.308Z,100.00
2023-03-24T06:25:28.917Z,100.00
2023-03-24T06:27:55.758Z,100.00
2023-03-24T06:30:22.650Z,100.00
2023-03-24T06:32:53.627Z,100.00
2023-03-24T06:35:20.571Z,100.00
2023-03-24T06:37:49.336Z,100.00
2023-03-24T06:40:18.454Z,100.00
2023-03-24T06:42:45.326Z,100.00
2023-03-24T06:45:12.564Z,100.00
2023-03-24T06:47:39.361Z,100.00
2023-03-24T06:50:07.546Z,100.00
2023-03-24T06:52:34.833Z,100.00
2023-03-24T06:55:02.640Z,100.00
2023-03-24T06:57:29.458Z,100.00
2023-03-24T06:59:56.894Z,100.00
2023-03-24T07:02:24.000Z,100.00
2023-03-24T07:04:51.091Z,100.00
2023-03-24T07:09:47.969Z,100.00
2023-03-24T07:12:15.003Z,100.00
2023-03-24T07:14:41.990Z,100.00
2023-03-24T07:17:09.033Z,100.00
2023-03-24T07:19:36.287Z,100.00
2023-03-24T07:22:03.710Z,100.00
2023-03-24T07:24:31.900Z,100.00
2023-03-24T07:27:00.627Z,100.00
2023-03-24T07:29:27.888Z,100.00
2023-03-24T07:31:54.810Z,100.00
2023-03-24T07:34:21.593Z,100.00
2023-03-24T07:36:48.418Z,100.00
2023-03-24T07:39:15.176Z,100.00
2023-03-24T07:41:42.216Z,100.00
2023-03-24T07:44:09.462Z,100.00
2023-03-24T07:46:36.996Z,100.00
2023-03-24T07:49:18.321Z,100.00
2023-03-24T07:51:49.433Z,100.00
2023-03-24T07:54:20.025Z,100.00
2023-03-24T07:56:48.717Z,100.00
2023-03-24T07:59:15.796Z,100.00
2023-03-24T08:01:43.066Z,100.00
2023-03-24T08:04:12.679Z,100.00
2023-03-24T08:06:40.529Z,100.00
2023-03-24T08:09:11.175Z,100.00
2023-03-24T08:11:40.826Z,100.00
2023-03-24T08:14:12.105Z,100.00
2023-03-24T08:16:42.912Z,100.00
2023-03-24T08:19:11.424Z,100.00
2023-03-24T08:21:40.958Z,100.00
2023-03-24T08:24:09.054Z,100.00
2023-03-24T08:26:36.192Z,100.00
2023-03-24T08:29:04.327Z,100.00
2023-03-24T08:31:35.860Z,100.00
2023-03-24T08:34:08.406Z,100.00
2023-03-24T08:36:35.252Z,100.00
2023-03-24T08:39:04.607Z,100.00
2023-03-24T08:41:37.116Z,100.00
2023-03-24T08:44:07.097Z,100.00
2023-03-24T08:46:35.054Z,100.00
2023-03-24T08:49:03.331Z,100.00
2023-03-24T08:51:32.046Z,100.00
2023-03-24T08:54:02.797Z,100.00
2023-03-24T08:56:31.197Z,100.00
2023-03-24T08:58:59.800Z,100.00
2023-03-24T09:01:27.863Z,100.00
2023-03-24T09:03:54.844Z,100.00
2023-03-24T09:06:23.088Z,100.00
2023-03-24T09:08:51.710Z,100.00
2023-03-24T09:11:23.827Z,100.00
2023-03-24T09:14:01.464Z,100.00
2023-03-24T09:16:35.095Z,100.00
2023-03-24T09:19:03.380Z,100.00
2023-03-24T09:21:30.839Z,100.00
2023-03-24T09:23:59.787Z,100.00
2023-03-24T09:26:28.895Z,100.00
2023-03-24T09:28:56.243Z,100.00
2023-03-24T09:31:23.128Z,100.00
2023-03-24T09:33:52.805Z,100.00
2023-03-24T09:36:23.797Z,99.28
2023-03-24T09:38:55.347Z,100.00
2023-03-24T09:41:34.464Z,100.00
2023-03-24T09:44:18.050Z,100.00
2023-03-24T09:46:50.371Z,100.00
2023-03-24T09:49:29.418Z,100.00
2023-03-24T09:52:02.724Z,100.00
2023-03-24T09:54:40.803Z,100.00
2023-03-24T09:57:17.267Z,100.00
2023-03-24T09:59:47.267Z,100.00
2023-03-24T10:02:23.917Z,100.00
2023-03-24T10:04:52.286Z,100.00
2023-03-24T10:07:32.650Z,100.00
2023-03-24T10:10:05.147Z,100.00
2023-03-24T10:12:40.479Z,100.00
2023-03-24T10:15:31.035Z,100.00
2023-03-24T10:18:35.136Z,100.00
2023-03-24T10:21:20.933Z,100.00
2023-03-24T10:24:08.621Z,100.00
2023-03-24T10:26:43.278Z,100.00
2023-03-24T10:29:37.988Z,100.00
2023-03-24T10:32:27.994Z,100.00
2023-03-24T10:35:02.562Z,100.00
2023-03-24T10:37:32.373Z,100.00
2023-03-24T10:40:01.468Z,100.00
2023-03-24T10:42:40.636Z,100.00
2023-03-24T10:45:21.043Z,100.00
2023-03-24T10:47:49.517Z,100.00
2023-03-24T10:50:16.980Z,100.00
2023-03-24T10:52:49.334Z,100.00
2023-03-24T10:55:19.841Z,100.00
2023-03-24T10:57:49.513Z,100.00
2023-03-24T11:00:36.733Z,100.00
2023-03-24T11:03:13.131Z,100.00
2023-03-24T11:05:47.084Z,100.00
2023-03-24T11:08:29.083Z,100.00
2023-03-24T11:10:57.451Z,100.00
2023-03-24T11:13:39.095Z,100.00
2023-03-24T11:16:22.830Z,100.00
2023-03-24T11:19:07.643Z,100.00
2023-03-24T11:21:38.092Z,100.00
2023-03-24T11:24:19.573Z,100.00
2023-03-24T11:27:01.068Z,100.00
2023-03-24T11:29:38.680Z,100.00
2023-03-24T11:32:17.008Z,100.00
2023-03-24T11:34:52.166Z,100.00
2023-03-24T11:37:24.754Z,100.00
2023-03-24T11:40:14.826Z,100.00
2023-03-24T11:42:52.342Z,100.00
2023-03-24T11:45:29.744Z,100.00
2023-03-24T11:48:02.182Z,100.00
2023-03-24T11:50:39.243Z,100.00
2023-03-24T11:53:25.326Z,100.00
2023-03-24T11:56:32.190Z,100.00
2023-03-24T11:59:19.166Z,100.00
2023-03-24T12:02:03.714Z,100.00
2023-03-24T12:05:05.996Z,100.00
2023-03-24T12:08:05.379Z,100.00
2023-03-24T12:11:08.609Z,100.00
2023-03-24T12:13:39.014Z,100.00
2023-03-24T12:17:00.094Z,100.00
2023-03-24T12:19:39.647Z,100.00
2023-03-24T12:22:21.281Z,99.71
2023-03-24T12:25:35.686Z,98.61
2023-03-24T12:28:32.909Z,96.85
2023-03-24T12:31:29.756Z,96.79
2023-03-24T12:34:20.810Z,97.20
2023-03-24T12:37:20.421Z,97.18
2023-03-24T12:40:19.164Z,96.80
2023-03-24T12:42:48.946Z,95.37
2023-03-24T12:45:21.434Z,94.77
2023-03-24T12:47:57.564Z,95.26
2023-03-24T12:50:54.466Z,92.13
2023-03-24T12:53:31.353Z,93.02
2023-03-24T12:56:02.559Z,91.82
2023-03-24T12:58:43.756Z,90.28
2023-03-24T13:01:40.012Z,89.36
2023-03-24T13:04:38.453Z,87.87
2023-03-24T13:07:15.245Z,87.60
2023-03-24T13:10:14.525Z,84.03
2023-03-24T13:13:21.968Z,85.08
2023-03-24T13:15:52.706Z,86.19
2023-03-24T13:18:40.897Z,84.68
2023-03-24T13:21:13.080Z,83.61
2023-03-24T13:24:05.457Z,83.15
2023-03-24T13:26:44.655Z,84.78
2023-03-24T13:32:54.500Z,80.48
2023-03-24T13:35:48.243Z,81.11
2023-03-24T13:38:56.069Z,79.30
2023-03-24T13:41:27.553Z,80.31
2023-03-24T13:44:16.746Z,78.60
2023-03-24T13:46:44.602Z,75.94
2023-03-24T13:49:16.161Z,75.38
2023-03-24T13:51:46.941Z,75.62
2023-03-24T13:54:17.524Z,74.95
2023-03-24T13:57:01.293Z,72.25
2023-03-24T13:59:43.136Z,74.15
2023-03-24T14:02:57.462Z,73.29
2023-03-24T14:05:58.761Z,71.89
2023-03-24T14:08:54.768Z,72.36
2023-03-24T14:12:11.926Z,72.34
2023-03-24T14:15:16.160Z,72.05
2023-03-24T14:17:44.675Z,73.70
2023-03-24T14:20:13.920Z,73.28
2023-03-24T14:22:50.269Z,73.13
2023-03-24T14:25:32.372Z,72.83
2023-03-24T14:28:18.563Z,71.58
2023-03-24T14:31:02.419Z,72.82
2023-03-24T14:33:30.083Z,71.09
2023-03-24T14:36:05.092Z,71.38
2023-03-24T14:38:37.166Z,69.29
2023-03-24T14:41:16.425Z,69.97
2023-03-24T14:43:54.317Z,70.72
2023-03-24T14:46:52.202Z,69.08
2023-03-24T14:49:30.922Z,69.53
2023-03-24T14:52:31.519Z,69.87
2023-03-24T14:55:08.334Z,70.03
2023-03-24T14:57:44.473Z,69.32
2023-03-24T15:00:28.622Z,70.78
2023-03-24T15:03:11.496Z,69.65
2023-03-24T15:05:39.619Z,69.71
2023-03-24T15:08:21.830Z,69.47
2023-03-24T15:10:53.008Z,68.79
2023-03-24T15:13:42.251Z,69.35
2023-03-24T15:16:22.974Z,69.52
2023-03-24T15:19:02.651Z,68.32
2023-03-24T15:21:34.347Z,69.89
2023-03-24T15:24:02.364Z,70.03
2023-03-24T15:26:31.670Z,68.56
2023-03-24T15:29:01.262Z,68.25
2023-03-24T15:31:32.828Z,69.89
2023-03-24T15:34:26.129Z,69.96
2023-03-24T15:37:08.613Z,69.83
2023-03-24T15:39:38.053Z,70.13
2023-03-24T15:42:13.649Z,70.21
2023-03-24T15:44:41.511Z,70.04
2023-03-24T15:47:24.777Z,69.85
2023-03-24T15:50:05.539Z,69.89
2023-03-24T15:52:38.151Z,69.69
2023-03-24T15:55:24.066Z,69.69
2023-03-24T15:57:51.299Z,71.09
2023-03-24T16:00:20.756Z,71.02
2023-03-24T16:02:56.185Z,72.35
2023-03-24T16:05:26.344Z,73.21
2023-03-24T16:08:01.196Z,73.73
2023-03-24T16:10:39.992Z,73.16
2023-03-24T16:13:20.908Z,73.80
2023-03-24T16:15:53.353Z,74.09
2023-03-24T16:18:35.013Z,73.89
2023-03-24T16:21:03.409Z,74.10
2023-03-24T16:23:31.228Z,73.19
2023-03-24T16:25:58.017Z,73.68
2023-03-24T16:28:25.625Z,74.37
2023-03-24T16:30:58.824Z,74.39
2023-03-24T16:33:25.941Z,74.63
2023-03-24T16:35:52.780Z,75.18
2023-03-24T16:38:19.673Z,75.69
2023-03-24T16:40:52.688Z,75.63
2023-03-24T16:43:20.262Z,76.81
2023-03-24T16:45:48.270Z,77.53
2023-03-24T16:48:15.891Z,77.95
2023-03-24T16:50:44.519Z,78.23
2023-03-24T16:53:11.679Z,78.51
2023-03-24T16:55:41.879Z,78.69
2023-03-24T16:58:09.007Z,79.20
2023-03-24T17:00:37.483Z,80.38
2023-03-24T17:03:05.896Z,80.96
2023-03-24T17:05:51.003Z,81.38
2023-03-24T17:08:19.137Z,81.73
2023-03-24T17:10:48.628Z,82.67
2023-03-24T17:13:19.801Z,82.82
2023-03-24T17:15:46.679Z,83.27
2023-03-24T17:18:13.806Z,83.62
2023-03-24T17:20:41.027Z,84.09
2023-03-24T17:23:10.125Z,84.16
2023-03-24T17:25:37.386Z,85.08
2023-03-24T17:28:07.368Z,85.41
2023-03-24T17:30:34.295Z,84.60
2023-03-24T17:33:01.672Z,84.72
2023-03-24T17:35:28.517Z,85.29
2023-03-24T17:37:55.316Z,86.56
2023-03-24T17:40:22.857Z,86.63
2023-03-24T17:42:49.970Z,87.27
2023-03-24T17:45:18.517Z,87.34
2023-03-24T17:47:46.594Z,88.31
2023-03-24T17:50:14.545Z,88.51
2023-03-24T17:52:51.430Z,88.64
2023-03-24T17:55:18.445Z,89.32
2023-03-24T17:57:45.737Z,89.19
2023-03-24T18:00:14.888Z,89.55
2023-03-24T18:02:43.056Z,90.10
2023-03-24T18:05:12.011Z,91.75
2023-03-24T18:07:39.943Z,93.02
2023-03-24T18:10:08.504Z,93.33
2023-03-24T18:12:37.025Z,93.69
2023-03-24T18:15:05.492Z,93.52
2023-03-24T18:17:32.408Z,94.21
2023-03-24T18:20:08.058Z,94.64
2023-03-24T18:22:35.242Z,94.18
2023-03-24T18:25:04.049Z,94.18
2023-03-24T18:27:30.885Z,93.97
2023-03-24T18:29:57.570Z,94.13
2023-03-24T18:32:24.417Z,93.65
2023-03-24T18:34:51.167Z,93.49
2023-03-24T18:37:17.963Z,94.63
2023-03-24T18:39:44.982Z,94.78
2023-03-24T18:42:12.148Z,95.61
2023-03-24T18:44:38.882Z,95.19
2023-03-24T18:47:06.032Z,95.61
2023-03-24T18:49:32.715Z,97.17
2023-03-24T18:51:59.473Z,96.86
2023-03-24T18:54:26.506Z,97.00
2023-03-24T18:56:53.252Z,97.36
2023-03-24T18:59:20.337Z,96.81
2023-03-24T19:01:48.865Z,97.23
2023-03-24T19:04:16.637Z,96.77
2023-03-24T19:06:44.551Z,96.13
2023-03-24T19:09:13.007Z,95.59
2023-03-24T19:11:42.749Z,94.39
2023-03-24T19:14:12.349Z,89.96
2023-03-24T19:16:39.378Z,87.95
2023-03-24T19:19:07.099Z,87.53
2023-03-24T19:21:34.017Z,86.36
2023-03-24T19:24:00.778Z,84.92
2023-03-24T19:26:27.480Z,84.44
2023-03-24T19:28:54.221Z,84.32
2023-03-24T19:31:20.956Z,86.00
2023-03-24T19:33:48.164Z,85.50
2023-03-24T19:36:16.040Z,84.67
2023-03-24T19:38:43.205Z,85.85
2023-03-24T19:41:12.337Z,86.16
2023-03-24T19:43:39.130Z,87.33
2023-03-24T19:46:06.608Z,88.23
2023-03-24T19:48:35.084Z,88.52
2023-03-24T19:51:02.240Z,88.82
2023-03-24T19:53:28.992Z,87.34
2023-03-24T19:55:59.273Z,88.02
2023-03-24T19:58:26.366Z,87.34
2023-03-24T20:00:53.599Z,84.70
2023-03-24T20:03:20.711Z,82.73
2023-03-24T20:05:48.893Z,83.40
2023-03-24T20:08:16.333Z,81.93
2023-03-24T20:10:43.099Z,80.32
2023-03-24T20:13:10.293Z,81.47
2023-03-24T20:15:37.428Z,84.46
2023-03-24T20:18:04.576Z,86.34
2023-03-24T20:20:32.241Z,88.46
2023-03-24T20:22:58.969Z,91.63
2023-03-24T20:25:25.865Z,92.60
2023-03-24T20:27:52.735Z,93.51
2023-03-24T20:30:20.914Z,95.88
2023-03-24T20:32:47.902Z,97.26
2023-03-24T20:35:15.038Z,99.15
2023-03-24T20:37:42.200Z,99.63
2023-03-24T20:40:10.840Z,99.82
2023-03-24T20:42:38.111Z,100.00
2023-03-24T20:45:06.366Z,100.00
2023-03-24T20:47:33.185Z,100.00
2023-03-24T20:50:00.180Z,100.00
2023-03-24T20:52:27.494Z,100.00
2023-03-24T20:54:54.584Z,100.00
2023-03-24T20:57:21.419Z,100.00
2023-03-24T20:59:48.823Z,100.00
2023-03-24T21:02:16.264Z,100.00
2023-03-24T21:04:43.345Z,100.00
2023-03-24T21:07:10.528Z,100.00
2023-03-24T21:09:37.527Z,100.00
2023-03-24T21:12:06.774Z,100.00
2023-03-24T21:14:34.153Z,100.00
2023-03-24T21:17:02.217Z,100.00
2023-03-24T21:19:29.152Z,100.00
2023-03-24T21:21:56.558Z,100.00
2023-03-24T21:24:24.102Z,100.00
2023-03-24T21:26:51.541Z,100.00
2023-03-24T21:29:18.538Z,100.00
2023-03-24T21:31:45.509Z,100.00
2023-03-24T21:34:12.254Z,100.00
2023-03-24T21:36:39.308Z,100.00
2023-03-24T21:39:10.521Z,100.00
2023-03-24T21:41:39.196Z,100.00
2023-03-24T21:44:08.264Z,100.00
2023-03-24T21:46:35.309Z,100.00
2023-03-24T21:49:02.309Z,100.00
2023-03-24T21:51:34.316Z,100.00
2023-03-24T21:54:04.488Z,100.00
2023-03-24T21:56:32.924Z,100.00
2023-03-24T21:59:00.627Z,100.00
2023-03-24T22:01:28.127Z,100.00
2023-03-24T22:03:56.128Z,100.00
2023-03-24T22:06:23.435Z,100.00
2023-03-24T22:08:51.090Z,100.00
2023-03-24T22:11:19.220Z,100.00
2023-03-24T22:13:46.835Z,100.00
2023-03-24T22:16:15.616Z,100.00
2023-03-24T22:18:42.583Z,100.00
2023-03-24T22:21:13.262Z,100.00
2023-03-24T22:23:42.939Z,100.00
2023-03-24T22:26:15.082Z,100.00
2023-03-24T22:28:42.664Z,100.00
2023-03-24T22:31:15.215Z,100.00
2023-03-24T22:33:42.078Z,100.00
2023-03-24T22:36:10.109Z,100.00
2023-03-24T22:38:37.432Z,100.00
2023-03-24T22:41:06.826Z,100.00
2023-03-24T22:43:33.746Z,100.00
2023-03-24T22:46:00.643Z,100.00
2023-03-24T22:48:27.763Z,100.00
2023-03-24T22:50:54.787Z,100.00
2023-03-24T22:53:21.850Z,100.00
2023-03-24T22:55:49.290Z,100.00
2023-03-24T22:58:16.295Z,100.00
2023-03-24T23:00:44.351Z,100.00
2023-03-24T23:03:11.640Z,100.00
2023-03-24T23:05:46.392Z,100.00
2023-03-24T23:08:15.482Z,100.00
2023-03-24T23:10:47.184Z,100.00
2023-03-24T23:13:14.774Z,100.00
2023-03-24T23:15:42.900Z,100.00
2023-03-24T23:18:10.663Z,100.00
2023-03-24T23:20:37.863Z,100.00
2023-03-24T23:23:06.791Z,100.00
2023-03-24T23:25:45.084Z,100.00
2023-03-24T23:28:13.240Z,100.00
2023-03-24T23:30:40.915Z,100.00
2023-03-24T23:33:07.986Z,100.00
2023-03-24T23:35:36.240Z,100.00
2023-03-24T23:38:03.308Z,100.00
2023-03-24T23:40:30.076Z,100.00
2023-03-24T23:42:57.136Z,100.00
2023-03-24T23:45:23.960Z,100.00
2023-03-24T23:47:52.003Z,100.00
2023-03-24T23:50:20.732Z,100.00
2023-03-24T23:52:48.124Z,100.00
2023-03-24T23:55:18.366Z,100.00
2023-03-24T23:57:45.758Z,100.00
